createdAt,value
2023-01-17T00:02:21.009Z,96.68
2023-01-17T00:05:06.584Z,96.77
2023-01-17T00:07:52.533Z,97.37
2023-01-17T00:10:22.601Z,96.74
2023-01-17T00:12:52.470Z,96.80
2023-01-17T00:15:20.592Z,96.66
2023-01-17T00:17:48.950Z,97.13
2023-01-17T00:20:36.775Z,96.79
2023-01-17T00:23:37.175Z,96.72
2023-01-17T00:26:17.148Z,97.06
2023-01-17T00:28:44.882Z,97.00
2023-01-17T00:31:14.012Z,97.15
2023-01-17T00:33:41.221Z,97.53
2023-01-17T00:36:09.097Z,97.33
2023-01-17T00:38:38.596Z,97.23
2023-01-17T00:41:10.787Z,97.47
2023-01-17T00:43:57.075Z,97.18
2023-01-17T00:46:42.845Z,97.56
2023-01-17T00:49:28.969Z,97.59
2023-01-17T00:52:14.270Z,97.74
2023-01-17T00:54:59.861Z,97.65
2023-01-17T00:57:45.424Z,97.74
2023-01-17T01:00:31.523Z,97.87
2023-01-17T01:03:17.104Z,98.37
2023-01-17T01:06:02.660Z,98.15
2023-01-17T01:08:49.656Z,98.41
2023-01-17T01:11:39.600Z,98.24
2023-01-17T01:14:29.398Z,98.46
2023-01-17T01:17:15.246Z,98.20
2023-01-17T01:20:00.912Z,98.61
2023-01-17T01:22:46.728Z,98.66
2023-01-17T01:25:32.208Z,99.16
2023-01-17T01:28:31.836Z,99.27
2023-01-17T01:31:24.566Z,99.77
2023-01-17T01:33:53.006Z,99.79
2023-01-17T01:36:20.790Z,100.00
2023-01-17T01:38:48.438Z,100.00
2023-01-17T01:41:15.537Z,100.00
2023-01-17T01:43:47.356Z,100.00
2023-01-17T01:46:35.154Z,100.00
2023-01-17T01:49:24.930Z,100.00
2023-01-17T01:51:59.200Z,100.00
2023-01-17T01:54:32.715Z,100.00
2023-01-17T01:57:04.028Z,100.00
2023-01-17T01:59:34.168Z,100.00
2023-01-17T02:02:01.842Z,100.00
2023-01-17T02:04:29.385Z,100.00
2023-01-17T02:07:03.763Z,100.00
2023-01-17T02:09:30.854Z,100.00
2023-01-17T02:11:58.399Z,100.00
2023-01-17T02:14:25.634Z,100.00
2023-01-17T02:17:17.813Z,100.00
2023-01-17T02:20:22.362Z,100.00
2023-01-17T02:23:07.814Z,100.00
2023-01-17T02:25:52.904Z,100.00
2023-01-17T02:28:28.917Z,100.00
2023-01-17T02:31:04.803Z,100.00
2023-01-17T02:33:57.518Z,100.00
2023-01-17T02:36:32.092Z,100.00
2023-01-17T02:39:20.571Z,100.00
2023-01-17T02:42:03.147Z,100.00
2023-01-17T02:44:30.169Z,100.00
2023-01-17T02:46:59.558Z,100.00
2023-01-17T02:49:30.239Z,100.00
2023-01-17T02:52:27.219Z,100.00
2023-01-17T02:55:16.061Z,100.00
2023-01-17T02:58:07.069Z,100.00
2023-01-17T03:00:49.081Z,100.00
2023-01-17T03:03:48.052Z,100.00
2023-01-17T03:06:29.381Z,100.00
2023-01-17T03:08:56.362Z,100.00
2023-01-17T03:11:23.522Z,100.00
2023-01-17T03:13:55.405Z,100.00
2023-01-17T03:16:24.969Z,100.00
2023-01-17T03:18:54.006Z,100.00
2023-01-17T03:21:22.011Z,100.00
2023-01-17T03:23:49.424Z,100.00
2023-01-17T03:26:16.858Z,100.00
2023-01-17T03:28:44.006Z,100.00
2023-01-17T03:31:15.413Z,100.00
2023-01-17T03:33:42.523Z,100.00
2023-01-17T03:36:10.107Z,100.00
2023-01-17T03:38:37.620Z,100.00
2023-01-17T03:41:05.932Z,100.00
2023-01-17T03:43:33.065Z,100.00
2023-01-17T03:46:08.695Z,100.00
2023-01-17T03:48:35.788Z,100.00
2023-01-17T03:51:02.973Z,100.00
2023-01-17T03:53:30.094Z,100.00
2023-01-17T03:55:57.121Z,100.00
2023-01-17T03:58:24.174Z,100.00
2023-01-17T04:00:51.255Z,100.00
2023-01-17T04:03:18.259Z,100.00
2023-01-17T04:05:45.421Z,100.00
2023-01-17T04:08:12.507Z,100.00
2023-01-17T04:10:39.566Z,100.00
2023-01-17T04:13:06.778Z,100.00
2023-01-17T04:15:34.550Z,100.00
2023-01-17T04:18:01.889Z,100.00
2023-01-17T04:20:40.141Z,100.00
2023-01-17T04:23:07.619Z,100.00
2023-01-17T04:25:34.789Z,100.00
2023-01-17T04:28:03.973Z,100.00
2023-01-17T04:30:32.379Z,100.00
2023-01-17T04:32:59.758Z,100.00
2023-01-17T04:35:27.103Z,100.00
2023-01-17T04:37:54.175Z,100.00
2023-01-17T04:40:21.344Z,100.00
2023-01-17T04:42:48.747Z,100.00
2023-01-17T04:45:16.158Z,100.00
2023-01-17T04:47:43.266Z,100.00
2023-01-17T04:50:13.104Z,100.00
2023-01-17T04:52:40.235Z,100.00
2023-01-17T04:55:08.251Z,100.00
2023-01-17T04:57:35.346Z,100.00
2023-01-17T05:00:04.957Z,100.00
2023-01-17T05:02:32.169Z,100.00
2023-01-17T05:04:59.285Z,100.00
2023-01-17T05:07:26.325Z,100.00
2023-01-17T05:09:53.356Z,100.00
2023-01-17T05:12:20.482Z,100.00
2023-01-17T05:14:47.553Z,100.00
2023-01-17T05:17:14.714Z,100.00
2023-01-17T05:19:41.760Z,100.00
2023-01-17T05:22:17.188Z,100.00
2023-01-17T05:24:45.894Z,100.00
2023-01-17T05:27:13.249Z,100.00
2023-01-17T05:29:40.448Z,100.00
2023-01-17T05:32:08.242Z,100.00
2023-01-17T05:34:35.319Z,100.00
2023-01-17T05:37:02.491Z,100.00
2023-01-17T05:39:31.234Z,100.00
2023-01-17T05:41:59.484Z,100.00
2023-01-17T05:44:27.869Z,100.00
2023-01-17T05:46:55.568Z,100.00
2023-01-17T05:49:22.620Z,100.00
2023-01-17T05:51:50.242Z,100.00
2023-01-17T05:54:17.931Z,100.00
2023-01-17T05:56:44.936Z,100.00
2023-01-17T05:59:14.083Z,100.00
2023-01-17T06:01:41.439Z,100.00
2023-01-17T06:04:08.574Z,100.00
2023-01-17T06:06:36.394Z,100.00
2023-01-17T06:09:03.820Z,100.00
2023-01-17T06:11:30.757Z,100.00
2023-01-17T06:13:57.809Z,100.00
2023-01-17T06:16:24.956Z,100.00
2023-01-17T06:18:52.094Z,100.00
2023-01-17T06:21:19.992Z,100.00
2023-01-17T06:23:47.119Z,100.00
2023-01-17T06:26:14.339Z,100.00
2023-01-17T06:28:41.362Z,100.00
2023-01-17T06:31:09.564Z,100.00
2023-01-17T06:33:36.942Z,100.00
2023-01-17T06:36:04.533Z,100.00
2023-01-17T06:38:31.834Z,100.00
2023-01-17T06:41:00.676Z,100.00
2023-01-17T06:43:29.057Z,100.00
2023-01-17T06:45:56.251Z,100.00
2023-01-17T06:48:23.357Z,100.00
2023-01-17T06:50:50.444Z,100.00
2023-01-17T06:53:17.718Z,99.92
2023-01-17T06:55:44.852Z,99.80
2023-01-17T06:58:12.133Z,99.77
2023-01-17T07:00:40.934Z,99.66
2023-01-17T07:03:19.355Z,99.81
2023-01-17T07:05:46.533Z,99.53
2023-01-17T07:08:14.268Z,99.99
2023-01-17T07:10:41.367Z,99.65
2023-01-17T07:13:08.729Z,99.33
2023-01-17T07:15:35.775Z,99.53
2023-01-17T07:18:04.169Z,99.52
2023-01-17T07:20:31.265Z,99.66
2023-01-17T07:22:58.539Z,99.56
2023-01-17T07:25:27.721Z,98.95
2023-01-17T07:27:57.784Z,98.81
2023-01-17T07:30:25.197Z,99.41
2023-01-17T07:32:53.633Z,98.98
2023-01-17T07:35:22.000Z,98.59
2023-01-17T07:37:50.152Z,98.71
2023-01-17T07:40:18.496Z,99.30
2023-01-17T07:42:45.999Z,98.89
2023-01-17T07:45:15.000Z,98.85
2023-01-17T07:47:42.260Z,99.14
2023-01-17T07:50:10.009Z,98.90
2023-01-17T07:52:37.068Z,98.74
2023-01-17T07:55:05.281Z,99.31
2023-01-17T07:57:33.105Z,99.14
2023-01-17T08:00:00.157Z,99.34
2023-01-17T08:02:27.274Z,99.34
2023-01-17T08:04:54.276Z,99.29
2023-01-17T08:07:21.511Z,99.04
2023-01-17T08:09:50.723Z,99.17
2023-01-17T08:12:17.970Z,99.07
2023-01-17T08:14:45.174Z,99.39
2023-01-17T08:17:14.901Z,99.44
2023-01-17T08:19:44.472Z,99.51
2023-01-17T08:22:12.462Z,99.37
2023-01-17T08:24:39.586Z,99.46
2023-01-17T08:27:06.860Z,99.37
2023-01-17T08:29:33.964Z,98.95
2023-01-17T08:32:01.070Z,99.25
2023-01-17T08:34:28.385Z,98.84
2023-01-17T08:36:55.723Z,98.42
2023-01-17T08:39:22.802Z,99.10
2023-01-17T08:41:49.919Z,98.68
2023-01-17T08:44:17.110Z,98.17
2023-01-17T08:46:44.408Z,97.97
2023-01-17T08:49:12.820Z,97.51
2023-01-17T08:51:40.573Z,97.47
2023-01-17T08:54:09.734Z,97.07
2023-01-17T08:56:36.881Z,96.49
2023-01-17T08:59:04.112Z,96.07
2023-01-17T09:01:31.211Z,95.65
2023-01-17T09:03:58.423Z,95.69
2023-01-17T09:06:25.504Z,95.40
2023-01-17T09:08:54.980Z,95.03
2023-01-17T09:11:22.148Z,94.68
2023-01-17T09:13:49.249Z,94.09
2023-01-17T09:16:16.463Z,93.64
2023-01-17T09:18:43.599Z,93.71
2023-01-17T09:21:18.308Z,93.39
2023-01-17T09:23:46.025Z,93.04
2023-01-17T09:26:30.135Z,92.37
2023-01-17T09:28:58.911Z,92.59
2023-01-17T09:31:27.345Z,92.47
2023-01-17T09:33:55.636Z,92.72
2023-01-17T09:36:23.458Z,92.02
2023-01-17T09:38:56.821Z,92.30
2023-01-17T09:41:56.084Z,91.83
2023-01-17T09:44:47.285Z,92.06
2023-01-17T09:47:37.665Z,91.96
2023-01-17T09:50:15.555Z,91.85
2023-01-17T09:52:43.387Z,91.32
2023-01-17T09:55:18.309Z,91.33
2023-01-17T09:57:51.224Z,91.28
2023-01-17T10:00:33.502Z,90.44
2023-01-17T10:03:39.083Z,90.85
2023-01-17T10:06:31.914Z,90.63
2023-01-17T10:09:35.014Z,91.27
2023-01-17T10:12:18.959Z,90.78
2023-01-17T10:15:21.787Z,90.22
2023-01-17T10:18:21.777Z,90.39
2023-01-17T10:21:23.833Z,90.62
2023-01-17T10:24:16.511Z,89.91
2023-01-17T10:26:53.736Z,90.06
2023-01-17T10:29:21.348Z,89.79
2023-01-17T10:32:00.493Z,89.29
2023-01-17T10:34:42.869Z,89.01
2023-01-17T10:37:41.179Z,88.89
2023-01-17T10:40:22.627Z,88.69
2023-01-17T10:42:57.837Z,88.64
2023-01-17T10:45:29.241Z,88.36
2023-01-17T10:48:05.093Z,87.99
2023-01-17T10:50:53.567Z,87.85
2023-01-17T10:53:34.536Z,87.74
2023-01-17T10:56:02.436Z,87.17
2023-01-17T10:58:29.564Z,87.26
2023-01-17T11:01:18.033Z,87.03
2023-01-17T11:03:51.263Z,86.54
2023-01-17T11:06:24.210Z,86.23
2023-01-17T11:08:54.524Z,85.83
2023-01-17T11:11:23.536Z,84.93
2023-01-17T11:13:52.741Z,84.77
2023-01-17T11:16:25.488Z,84.23
2023-01-17T11:19:11.006Z,84.29
2023-01-17T11:21:40.530Z,84.07
2023-01-17T11:24:19.423Z,84.15
2023-01-17T11:26:49.624Z,83.26
2023-01-17T11:29:37.332Z,83.14
2023-01-17T11:32:22.580Z,82.64
2023-01-17T11:35:18.311Z,82.88
2023-01-17T11:37:59.511Z,82.82
2023-01-17T11:40:49.938Z,83.31
2023-01-17T11:43:23.020Z,83.05
2023-01-17T11:46:04.720Z,83.00
2023-01-17T11:48:37.717Z,83.53
2023-01-17T11:51:16.923Z,82.90
2023-01-17T11:53:48.871Z,83.26
2023-01-17T11:56:21.343Z,82.53
2023-01-17T11:58:48.554Z,82.13
2023-01-17T12:01:18.355Z,81.98
2023-01-17T12:04:12.409Z,81.49
2023-01-17T12:06:58.610Z,81.56
2023-01-17T12:09:32.162Z,81.89
2023-01-17T12:12:48.801Z,81.42
2023-01-17T12:15:21.612Z,81.51
2023-01-17T12:18:09.187Z,80.52
2023-01-17T12:20:36.137Z,80.52
2023-01-17T12:23:18.262Z,79.74
2023-01-17T12:25:48.280Z,80.23
2023-01-17T12:28:46.522Z,80.15
2023-01-17T12:31:24.821Z,80.13
2023-01-17T12:33:57.821Z,79.90
2023-01-17T12:36:49.641Z,79.77
2023-01-17T12:39:22.593Z,79.45
2023-01-17T12:41:49.636Z,79.25
2023-01-17T12:44:20.163Z,79.26
2023-01-17T12:46:54.184Z,79.78
2023-01-17T12:49:30.135Z,79.38
2023-01-17T12:52:05.209Z,79.10
2023-01-17T12:54:38.523Z,79.15
2023-01-17T12:57:27.694Z,78.70
2023-01-17T13:00:12.746Z,79.07
2023-01-17T13:02:58.361Z,79.15
2023-01-17T13:05:37.467Z,78.99
2023-01-17T13:08:07.039Z,78.95
2023-01-17T13:10:46.394Z,78.71
2023-01-17T13:13:24.279Z,79.59
2023-01-17T13:16:14.676Z,78.97
2023-01-17T13:18:45.261Z,79.14
2023-01-17T13:21:30.303Z,78.69
2023-01-17T13:24:02.169Z,79.11
2023-01-17T13:26:56.348Z,78.96
2023-01-17T13:30:03.248Z,78.65
2023-01-17T13:32:55.593Z,78.39
2023-01-17T13:35:40.089Z,78.23
2023-01-17T13:38:15.921Z,78.83
2023-01-17T13:40:58.655Z,78.51
2023-01-17T13:43:30.747Z,78.89
2023-01-17T13:46:01.549Z,78.83
2023-01-17T13:48:41.036Z,78.38
2023-01-17T13:51:11.912Z,78.24
2023-01-17T13:53:39.012Z,78.06
2023-01-17T13:56:31.714Z,77.66
2023-01-17T13:59:03.562Z,78.36
2023-01-17T14:01:38.676Z,78.08
2023-01-17T14:04:08.494Z,77.89
2023-01-17T14:06:37.340Z,77.53
2023-01-17T14:09:27.967Z,76.95
2023-01-17T14:12:14.269Z,77.28
2023-01-17T14:14:41.923Z,77.16
2023-01-17T14:17:25.741Z,76.82
2023-01-17T14:20:01.335Z,76.97
2023-01-17T14:22:31.783Z,76.54
2023-01-17T14:25:20.148Z,76.12
2023-01-17T14:27:55.042Z,76.07
2023-01-17T14:30:34.040Z,75.65
2023-01-17T14:33:22.566Z,75.57
2023-01-17T14:35:56.311Z,75.05
2023-01-17T14:38:34.085Z,74.87
2023-01-17T14:41:09.752Z,75.45
2023-01-17T14:43:41.043Z,75.05
2023-01-17T14:46:31.399Z,74.84
2023-01-17T14:49:20.809Z,74.55
2023-01-17T14:52:02.484Z,75.33
2023-01-17T14:54:29.954Z,75.57
2023-01-17T14:57:26.934Z,74.98
2023-01-17T15:00:11.360Z,75.23
2023-01-17T15:02:44.168Z,75.38
2023-01-17T15:05:16.891Z,75.50
2023-01-17T15:07:47.022Z,75.83
2023-01-17T15:10:17.788Z,75.44
2023-01-17T15:12:47.250Z,75.24
2023-01-17T15:15:44.155Z,75.70
2023-01-17T15:18:14.144Z,75.80
2023-01-17T15:21:09.221Z,76.24
2023-01-17T15:23:44.423Z,75.54
2023-01-17T15:26:14.039Z,75.82
2023-01-17T15:28:42.274Z,76.06
2023-01-17T15:31:37.916Z,76.41
2023-01-17T15:34:07.656Z,76.36
2023-01-17T15:36:35.766Z,76.06
2023-01-17T15:39:15.173Z,75.80
2023-01-17T15:41:42.276Z,75.85
2023-01-17T15:44:33.395Z,75.66
2023-01-17T15:47:30.405Z,75.81
2023-01-17T15:49:58.329Z,75.70
2023-01-17T15:52:25.673Z,75.54
2023-01-17T15:54:58.964Z,75.92
2023-01-17T15:57:37.816Z,75.87
2023-01-17T16:00:20.458Z,75.66
2023-01-17T16:02:55.423Z,76.15
2023-01-17T16:05:23.137Z,76.30
2023-01-17T16:07:54.761Z,76.21
2023-01-17T16:10:31.860Z,76.17
2023-01-17T16:12:59.964Z,76.17
2023-01-17T16:15:28.301Z,76.41
2023-01-17T16:18:06.904Z,76.44
2023-01-17T16:21:01.439Z,76.49
2023-01-17T16:23:28.763Z,76.53
2023-01-17T16:25:55.877Z,76.92
2023-01-17T16:28:23.246Z,76.71
2023-01-17T16:30:50.314Z,77.43
2023-01-17T16:33:17.455Z,77.41
2023-01-17T16:35:44.564Z,77.67
2023-01-17T16:38:14.280Z,77.57
2023-01-17T16:40:47.122Z,77.51
2023-01-17T16:43:17.339Z,77.64
2023-01-17T16:45:46.392Z,77.76
2023-01-17T16:48:14.097Z,77.91
2023-01-17T16:50:48.191Z,78.33
2023-01-17T16:53:15.897Z,78.16
2023-01-17T16:55:44.157Z,78.02
2023-01-17T16:58:11.560Z,78.00
2023-01-17T17:00:40.568Z,78.50
2023-01-17T17:03:07.629Z,78.32
2023-01-17T17:05:34.925Z,78.03
2023-01-17T17:08:02.061Z,78.17
2023-01-17T17:10:30.197Z,78.44
2023-01-17T17:12:57.508Z,78.36
2023-01-17T17:15:24.649Z,78.59
2023-01-17T17:17:52.700Z,78.70
2023-01-17T17:20:20.208Z,78.52
2023-01-17T17:22:51.713Z,78.92
2023-01-17T17:25:19.559Z,78.93
2023-01-17T17:27:46.614Z,78.93
2023-01-17T17:30:14.090Z,79.00
2023-01-17T17:32:41.216Z,78.88
2023-01-17T17:35:08.805Z,78.81
2023-01-17T17:37:36.032Z,78.43
2023-01-17T17:40:04.502Z,78.67
2023-01-17T17:42:31.761Z,78.39
2023-01-17T17:44:58.786Z,77.92
2023-01-17T17:47:25.908Z,77.72
2023-01-17T17:49:52.972Z,77.89
2023-01-17T17:52:20.083Z,77.62
2023-01-17T17:54:48.536Z,77.67
2023-01-17T17:57:15.630Z,77.90
2023-01-17T17:59:42.648Z,77.59
2023-01-17T18:02:11.473Z,77.70
2023-01-17T18:04:39.072Z,77.88
2023-01-17T18:07:06.297Z,77.97
2023-01-17T18:09:33.347Z,78.24
2023-01-17T18:12:00.536Z,78.19
2023-01-17T18:14:27.641Z,78.17
2023-01-17T18:16:54.948Z,77.63
2023-01-17T18:19:24.465Z,77.87
2023-01-17T18:21:52.638Z,77.76
2023-01-17T18:24:22.034Z,77.50
2023-01-17T18:26:51.619Z,77.74
2023-01-17T18:29:24.416Z,77.96
2023-01-17T18:31:52.653Z,77.96
2023-01-17T18:34:24.608Z,77.98
2023-01-17T18:36:52.280Z,77.88
2023-01-17T18:39:22.023Z,78.12
2023-01-17T18:41:49.716Z,78.16
2023-01-17T18:44:18.071Z,77.91
2023-01-17T18:46:48.092Z,78.24
2023-01-17T18:49:16.650Z,78.37
2023-01-17T18:51:46.860Z,78.58
2023-01-17T18:54:13.840Z,78.40
2023-01-17T18:56:42.625Z,78.90
2023-01-17T18:59:12.978Z,78.60
2023-01-17T19:01:42.446Z,78.65
2023-01-17T19:04:10.377Z,79.00
2023-01-17T19:06:43.167Z,79.55
2023-01-17T19:09:11.867Z,79.26
2023-01-17T19:11:39.662Z,79.58
2023-01-17T19:14:07.247Z,79.73
2023-01-17T19:16:39.329Z,79.68
2023-01-17T19:19:13.864Z,79.90
2023-01-17T19:21:41.071Z,80.00
2023-01-17T19:24:10.262Z,80.29
2023-01-17T19:26:37.368Z,80.62
2023-01-17T19:29:05.378Z,80.45
2023-01-17T19:31:36.391Z,80.56
2023-01-17T19:34:03.635Z,80.74
2023-01-17T19:36:35.926Z,81.02
2023-01-17T19:39:06.092Z,80.69
2023-01-17T19:41:41.299Z,80.63
2023-01-17T19:44:10.567Z,81.04
2023-01-17T19:46:38.332Z,81.35
2023-01-17T19:49:08.333Z,81.09
2023-01-17T19:51:36.475Z,81.65
2023-01-17T19:54:05.331Z,81.17
2023-01-17T19:56:32.487Z,81.31
2023-01-17T19:59:01.828Z,81.65
2023-01-17T20:01:32.304Z,81.22
2023-01-17T20:04:00.052Z,81.38
2023-01-17T20:06:30.621Z,81.60
2023-01-17T20:08:57.928Z,81.69
2023-01-17T20:11:28.830Z,82.15
2023-01-17T20:13:57.820Z,81.91
2023-01-17T20:16:26.567Z,82.38
2023-01-17T20:18:53.867Z,82.66
2023-01-17T20:21:24.186Z,82.86
2023-01-17T20:23:53.181Z,82.60
2023-01-17T20:26:29.841Z,82.82
2023-01-17T20:28:57.317Z,83.25
2023-01-17T20:31:25.896Z,83.27
2023-01-17T20:33:55.300Z,83.41
2023-01-17T20:36:25.185Z,83.71
2023-01-17T20:38:53.392Z,83.90
2023-01-17T20:41:34.727Z,83.95
2023-01-17T20:44:03.282Z,84.23
2023-01-17T20:46:35.602Z,83.96
2023-01-17T20:49:05.634Z,84.46
2023-01-17T20:51:38.753Z,84.66
2023-01-17T20:54:08.943Z,84.78
2023-01-17T20:56:37.855Z,85.05
2023-01-17T20:59:08.835Z,84.98
2023-01-17T21:01:37.316Z,84.94
2023-01-17T21:04:10.341Z,84.91
2023-01-17T21:06:40.115Z,85.29
2023-01-17T21:09:09.135Z,85.65
2023-01-17T21:11:37.276Z,85.42
2023-01-17T21:14:06.041Z,85.79
2023-01-17T21:16:34.428Z,85.85
2023-01-17T21:19:02.043Z,86.05
2023-01-17T21:21:29.874Z,86.29
2023-01-17T21:23:59.334Z,86.33
2023-01-17T21:26:28.746Z,86.66
2023-01-17T21:28:56.014Z,86.71
2023-01-17T21:31:29.639Z,86.64
2023-01-17T21:33:59.251Z,86.68
2023-01-17T21:36:29.265Z,86.59
2023-01-17T21:38:58.349Z,86.61
2023-01-17T21:41:30.531Z,87.16
2023-01-17T21:44:01.740Z,87.13
2023-01-17T21:46:29.915Z,87.00
2023-01-17T21:48:57.935Z,87.07
2023-01-17T21:51:45.636Z,87.04
2023-01-17T21:54:12.954Z,87.17
2023-01-17T21:56:58.523Z,87.57
2023-01-17T21:59:25.725Z,88.35
2023-01-17T22:01:52.915Z,88.63
2023-01-17T22:04:20.271Z,89.30
2023-01-17T22:06:47.566Z,89.14
2023-01-17T22:09:15.324Z,89.48
2023-01-17T22:11:42.481Z,89.78
2023-01-17T22:14:09.883Z,89.94
2023-01-17T22:16:37.097Z,89.65
2023-01-17T22:19:04.605Z,89.96
2023-01-17T22:21:31.917Z,90.08
2023-01-17T22:24:00.525Z,89.79
2023-01-17T22:26:30.283Z,90.10
2023-01-17T22:29:00.452Z,89.76
2023-01-17T22:31:28.383Z,90.10
2023-01-17T22:33:58.146Z,90.27
2023-01-17T22:36:26.127Z,90.56
2023-01-17T22:38:53.897Z,90.07
2023-01-17T22:41:25.425Z,89.62
2023-01-17T22:43:56.021Z,89.44
2023-01-17T22:46:27.205Z,89.28
2023-01-17T22:48:55.803Z,89.29
2023-01-17T22:51:24.894Z,89.03
2023-01-17T22:53:57.176Z,89.23
2023-01-17T22:56:29.975Z,89.07
2023-01-17T22:59:02.063Z,89.25
2023-01-17T23:01:35.530Z,88.93
2023-01-17T23:04:04.554Z,88.61
2023-01-17T23:06:37.970Z,88.66
2023-01-17T23:09:10.925Z,88.32
2023-01-17T23:11:43.961Z,88.29
2023-01-17T23:14:27.523Z,89.05
2023-01-17T23:17:21.780Z,88.80
2023-01-17T23:19:54.803Z,88.76
2023-01-17T23:22:27.811Z,89.15
2023-01-17T23:25:00.603Z,89.00
2023-01-17T23:27:57.540Z,89.12
2023-01-17T23:30:35.891Z,89.22
2023-01-17T23:33:07.181Z,89.86
2023-01-17T23:35:41.544Z,89.54
2023-01-17T23:38:34.809Z,89.20
2023-01-17T23:41:23.233Z,89.49
2023-01-17T23:43:59.259Z,89.65
2023-01-17T23:46:27.212Z,89.70
2023-01-17T23:48:55.334Z,89.77
2023-01-17T23:51:22.755Z,90.12
2023-01-17T23:53:51.168Z,90.86
2023-01-17T23:56:23.835Z,90.26
2023-01-17T23:58:50.943Z,90.59
